sensor_id;sensor_type;location;lat;lon;timestamp;temperature;humidity
21035;DHT22;10676;50.848;3.272;2022-12-10T00:01:46;2.80;99.90
21035;DHT22;10676;50.848;3.272;2022-12-10T00:04:12;2.80;99.90
21035;DHT22;10676;50.848;3.272;2022-12-10T00:06:39;2.80;99.90
21035;DHT22;10676;50.848;3.272;2022-12-10T00:09:07;2.80;99.90
21035;DHT22;10676;50.848;3.272;2022-12-10T00:11:34;2.70;99.90
21035;DHT22;10676;50.848;3.272;2022-12-10T00:14:00;2.70;99.90
21035;DHT22;10676;50.848;3.272;2022-12-10T00:16:27;2.70;99.90
21035;DHT22;10676;50.848;3.272;2022-12-10T00:18:54;2.70;99.90
21035;DHT22;10676;50.848;3.272;2022-12-10T00:21:23;2.70;99.90
21035;DHT22;10676;50.848;3.272;2022-12-10T00:23:49;2.70;99.90
21035;DHT22;10676;50.848;3.272;2022-12-10T00:26:35;2.70;99.90
21035;DHT22;10676;50.848;3.272;2022-12-10T00:29:03;2.80;99.90
21035;DHT22;10676;50.848;3.272;2022-12-10T00:31:33;2.80;99.90
21035;DHT22;10676;50.848;3.272;2022-12-10T00:34:01;2.70;99.90
21035;DHT22;10676;50.848;3.272;2022-12-10T00:36:33;2.70;99.90
21035;DHT22;10676;50.848;3.272;2022-12-10T00:39:00;2.70;99.90
21035;DHT22;10676;50.848;3.272;2022-12-10T00:41:26;2.80;99.90
21035;DHT22;10676;50.848;3.272;2022-12-10T00:43:51;2.80;99.90
21035;DHT22;10676;50.848;3.272;2022-12-10T00:46:18;2.90;99.90
21035;DHT22;10676;50.848;3.272;2022-12-10T00:48:44;2.90;99.90
21035;DHT22;10676;50.848;3.272;2022-12-10T00:51:22;2.90;99.90
21035;DHT22;10676;50.848;3.272;2022-12-10T00:53:49;2.90;99.90
21035;DHT22;10676;50.848;3.272;2022-12-10T00:56:17;2.90;99.90
21035;DHT22;10676;50.848;3.272;2022-12-10T00:58:43;3.00;99.90
21035;DHT22;10676;50.848;3.272;2022-12-10T01:01:30;3.00;99.90
21035;DHT22;10676;50.848;3.272;2022-12-10T01:04:02;3.00;99.90
21035;DHT22;10676;50.848;3.272;2022-12-10T01:06:36;3.00;99.90
21035;DHT22;10676;50.848;3.272;2022-12-10T01:09:06;3.00;99.90
21035;DHT22;10676;50.848;3.272;2022-12-10T01:11:35;3.00;99.90
21035;DHT22;10676;50.848;3.272;2022-12-10T01:14:04;2.90;99.90
21035;DHT22;10676;50.848;3.272;2022-12-10T01:16:31;2.90;99.90
21035;DHT22;10676;50.848;3.272;2022-12-10T01:18:58;2.90;99.90
21035;DHT22;10676;50.848;3.272;2022-12-10T01:21:25;2.80;99.90
21035;DHT22;10676;50.848;3.272;2022-12-10T01:23:51;2.90;99.90
21035;DHT22;10676;50.848;3.272;2022-12-10T01:26:20;2.90;99.90
21035;DHT22;10676;50.848;3.272;2022-12-10T01:28:46;3.00;99.90
21035;DHT22;10676;50.848;3.272;2022-12-10T01:31:18;3.00;99.90
21035;DHT22;10676;50.848;3.272;2022-12-10T01:33:44;3.00;99.90
21035;DHT22;10676;50.848;3.272;2022-12-10T01:36:22;3.00;99.90
21035;DHT22;10676;50.848;3.272;2022-12-10T01:38:48;3.00;99.90
21035;DHT22;10676;50.848;3.272;2022-12-10T01:41:27;3.00;99.90
21035;DHT22;10676;50.848;3.272;2022-12-10T01:46:33;3.10;99.90
21035;DHT22;10676;50.848;3.272;2022-12-10T01:49:00;3.00;99.90
21035;DHT22;10676;50.848;3.272;2022-12-10T01:51:28;3.00;99.90
21035;DHT22;10676;50.848;3.272;2022-12-10T01:53:54;3.00;99.90
21035;DHT22;10676;50.848;3.272;2022-12-10T01:56:21;3.10;99.90
21035;DHT22;10676;50.848;3.272;2022-12-10T01:58:49;3.10;99.90
21035;DHT22;10676;50.848;3.272;2022-12-10T02:01:30;3.10;99.90
21035;DHT22;10676;50.848;3.272;2022-12-10T02:04:04;3.00;99.90
21035;DHT22;10676;50.848;3.272;2022-12-10T02:06:45;3.00;99.90
21035;DHT22;10676;50.848;3.272;2022-12-10T02:13:02;2.90;99.90
21035;DHT22;10676;50.848;3.272;2022-12-10T02:15:04;2.90;99.90
21035;DHT22;10676;50.848;3.272;2022-12-10T02:22:49;2.90;99.90
21035;DHT22;10676;50.848;3.272;2022-12-10T02:25:19;2.90;99.90
21035;DHT22;10676;50.848;3.272;2022-12-10T02:28:05;2.90;99.90
21035;DHT22;10676;50.848;3.272;2022-12-10T02:30:34;3.00;99.90
21035;DHT22;10676;50.848;3.272;2022-12-10T02:33:03;3.00;99.90
21035;DHT22;10676;50.848;3.272;2022-12-10T02:35:33;3.00;99.90
21035;DHT22;10676;50.848;3.272;2022-12-10T02:38:09;3.00;99.90
21035;DHT22;10676;50.848;3.272;2022-12-10T02:40:38;3.10;99.90
21035;DHT22;10676;50.848;3.272;2022-12-10T02:43:06;3.10;99.90
21035;DHT22;10676;50.848;3.272;2022-12-10T02:45:34;3.10;99.90
21035;DHT22;10676;50.848;3.272;2022-12-10T02:48:02;3.10;99.90
21035;DHT22;10676;50.848;3.272;2022-12-10T02:50:28;3.10;99.90
21035;DHT22;10676;50.848;3.272;2022-12-10T02:52:54;3.10;99.90
21035;DHT22;10676;50.848;3.272;2022-12-10T02:55:20;3.10;99.90
21035;DHT22;10676;50.848;3.272;2022-12-10T03:00:31;3.10;99.90
21035;DHT22;10676;50.848;3.272;2022-12-10T03:08:32;3.00;99.90
21035;DHT22;10676;50.848;3.272;2022-12-10T03:11:12;3.10;99.90
21035;DHT22;10676;50.848;3.272;2022-12-10T03:14:00;3.10;99.90
21035;DHT22;10676;50.848;3.272;2022-12-10T03:16:50;3.10;99.90
21035;DHT22;10676;50.848;3.272;2022-12-10T03:19:19;3.10;99.90
21035;DHT22;10676;50.848;3.272;2022-12-10T03:21:47;3.20;99.90
21035;DHT22;10676;50.848;3.272;2022-12-10T03:24:15;3.20;99.90
21035;DHT22;10676;50.848;3.272;2022-12-10T03:26:44;3.20;99.90
21035;DHT22;10676;50.848;3.272;2022-12-10T03:29:15;3.20;99.90
21035;DHT22;10676;50.848;3.272;2022-12-10T03:31:43;3.20;99.90
21035;DHT22;10676;50.848;3.272;2022-12-10T03:34:10;3.10;99.90
21035;DHT22;10676;50.848;3.272;2022-12-10T03:36:36;3.10;99.90
21035;DHT22;10676;50.848;3.272;2022-12-10T03:39:03;3.10;99.90
21035;DHT22;10676;50.848;3.272;2022-12-10T03:41:30;3.10;99.90
21035;DHT22;10676;50.848;3.272;2022-12-10T03:43:58;3.10;99.90
21035;DHT22;10676;50.848;3.272;2022-12-10T03:46:25;3.10;99.90
21035;DHT22;10676;50.848;3.272;2022-12-10T03:48:52;3.10;99.90
21035;DHT22;10676;50.848;3.272;2022-12-10T03:51:19;3.20;99.90
21035;DHT22;10676;50.848;3.272;2022-12-10T03:53:46;3.10;99.90
21035;DHT22;10676;50.848;3.272;2022-12-10T03:56:14;3.10;99.90
21035;DHT22;10676;50.848;3.272;2022-12-10T03:58:40;3.20;99.90
21035;DHT22;10676;50.848;3.272;2022-12-10T04:01:06;3.10;99.90
21035;DHT22;10676;50.848;3.272;2022-12-10T04:03:37;3.10;99.90
21035;DHT22;10676;50.848;3.272;2022-12-10T04:06:10;3.10;99.90
21035;DHT22;10676;50.848;3.272;2022-12-10T04:08:36;3.10;99.90
21035;DHT22;10676;50.848;3.272;2022-12-10T04:11:06;3.00;99.90
21035;DHT22;10676;50.848;3.272;2022-12-10T04:13:36;3.00;99.90
21035;DHT22;10676;50.848;3.272;2022-12-10T04:16:22;3.00;99.90
21035;DHT22;10676;50.848;3.272;2022-12-10T04:19:00;2.90;99.90
21035;DHT22;10676;50.848;3.272;2022-12-10T04:21:27;2.90;99.90
21035;DHT22;10676;50.848;3.272;2022-12-10T04:24:13;2.90;99.90
21035;DHT22;10676;50.848;3.272;2022-12-10T04:27:00;3.00;99.90
21035;DHT22;10676;50.848;3.272;2022-12-10T04:29:29;2.90;99.90
21035;DHT22;10676;50.848;3.272;2022-12-10T04:31:56;2.90;99.90
21035;DHT22;10676;50.848;3.272;2022-12-10T04:34:23;2.90;99.90
21035;DHT22;10676;50.848;3.272;2022-12-10T04:36:50;2.90;99.90
21035;DHT22;10676;50.848;3.272;2022-12-10T04:39:16;2.90;99.90
21035;DHT22;10676;50.848;3.272;2022-12-10T04:41:45;2.90;99.90
21035;DHT22;10676;50.848;3.272;2022-12-10T04:44:11;3.00;99.90
21035;DHT22;10676;50.848;3.272;2022-12-10T04:46:37;3.00;99.90
21035;DHT22;10676;50.848;3.272;2022-12-10T04:49:04;3.00;99.90
21035;DHT22;10676;50.848;3.272;2022-12-10T04:51:30;3.00;99.90
21035;DHT22;10676;50.848;3.272;2022-12-10T04:53:57;3.00;99.90
21035;DHT22;10676;50.848;3.272;2022-12-10T04:56:22;3.00;99.90
21035;DHT22;10676;50.848;3.272;2022-12-10T04:58:49;3.00;99.90
21035;DHT22;10676;50.848;3.272;2022-12-10T05:01:15;2.90;99.90
21035;DHT22;10676;50.848;3.272;2022-12-10T05:03:41;2.80;99.90
21035;DHT22;10676;50.848;3.272;2022-12-10T05:06:11;2.80;99.90
21035;DHT22;10676;50.848;3.272;2022-12-10T05:08:38;2.70;99.90
21035;DHT22;10676;50.848;3.272;2022-12-10T05:11:38;2.70;99.90
21035;DHT22;10676;50.848;3.272;2022-12-10T05:13:57;2.60;99.90
21035;DHT22;10676;50.848;3.272;2022-12-10T05:16:25;2.60;99.90
21035;DHT22;10676;50.848;3.272;2022-12-10T05:18:52;2.60;99.90
21035;DHT22;10676;50.848;3.272;2022-12-10T05:21:19;2.70;99.90
21035;DHT22;10676;50.848;3.272;2022-12-10T05:23:48;2.60;99.90
21035;DHT22;10676;50.848;3.272;2022-12-10T05:26:19;2.50;99.90
21035;DHT22;10676;50.848;3.272;2022-12-10T05:28:47;2.50;99.90
21035;DHT22;10676;50.848;3.272;2022-12-10T05:31:25;2.50;99.90
21035;DHT22;10676;50.848;3.272;2022-12-10T05:33:51;2.50;99.90
21035;DHT22;10676;50.848;3.272;2022-12-10T05:36:20;2.40;99.90
21035;DHT22;10676;50.848;3.272;2022-12-10T05:38:48;2.40;99.90
21035;DHT22;10676;50.848;3.272;2022-12-10T05:41:15;2.40;99.90
21035;DHT22;10676;50.848;3.272;2022-12-10T05:43:42;2.40;99.90
21035;DHT22;10676;50.848;3.272;2022-12-10T05:46:15;2.40;99.90
21035;DHT22;10676;50.848;3.272;2022-12-10T05:48:41;2.40;99.90
21035;DHT22;10676;50.848;3.272;2022-12-10T05:51:09;2.40;99.90
21035;DHT22;10676;50.848;3.272;2022-12-10T05:53:35;2.40;99.90
21035;DHT22;10676;50.848;3.272;2022-12-10T05:56:09;2.40;99.90
21035;DHT22;10676;50.848;3.272;2022-12-10T05:58:36;2.30;99.90
21035;DHT22;10676;50.848;3.272;2022-12-10T06:01:08;2.40;99.90
21035;DHT22;10676;50.848;3.272;2022-12-10T06:03:34;2.30;99.90
21035;DHT22;10676;50.848;3.272;2022-12-10T06:06:00;2.30;99.90
21035;DHT22;10676;50.848;3.272;2022-12-10T06:08:25;2.30;99.90
21035;DHT22;10676;50.848;3.272;2022-12-10T06:10:51;2.30;99.90
21035;DHT22;10676;50.848;3.272;2022-12-10T06:13:17;2.40;99.90
21035;DHT22;10676;50.848;3.272;2022-12-10T06:15:43;2.40;99.90
21035;DHT22;10676;50.848;3.272;2022-12-10T06:18:08;2.30;99.90
21035;DHT22;10676;50.848;3.272;2022-12-10T06:20:37;2.40;99.90
21035;DHT22;10676;50.848;3.272;2022-12-10T06:23:03;2.40;99.90
21035;DHT22;10676;50.848;3.272;2022-12-10T06:25:28;2.30;99.90
21035;DHT22;10676;50.848;3.272;2022-12-10T06:27:54;2.30;99.90
21035;DHT22;10676;50.848;3.272;2022-12-10T06:30:20;2.40;99.90
21035;DHT22;10676;50.848;3.272;2022-12-10T06:32:45;2.40;99.90
21035;DHT22;10676;50.848;3.272;2022-12-10T06:35:11;2.40;99.90
21035;DHT22;10676;50.848;3.272;2022-12-10T06:37:37;2.60;99.90
21035;DHT22;10676;50.848;3.272;2022-12-10T06:40:03;2.50;99.90
21035;DHT22;10676;50.848;3.272;2022-12-10T06:42:29;2.40;99.90
21035;DHT22;10676;50.848;3.272;2022-12-10T06:44:55;2.40;99.90
21035;DHT22;10676;50.848;3.272;2022-12-10T06:47:21;2.40;99.90
21035;DHT22;10676;50.848;3.272;2022-12-10T06:49:47;2.40;99.90
21035;DHT22;10676;50.848;3.272;2022-12-10T06:52:13;2.40;99.90
21035;DHT22;10676;50.848;3.272;2022-12-10T06:54:39;2.60;99.90
21035;DHT22;10676;50.848;3.272;2022-12-10T06:57:04;2.40;99.90
21035;DHT22;10676;50.848;3.272;2022-12-10T06:59:30;2.40;99.90
21035;DHT22;10676;50.848;3.272;2022-12-10T07:01:56;2.40;99.90
21035;DHT22;10676;50.848;3.272;2022-12-10T07:04:22;2.40;99.90
21035;DHT22;10676;50.848;3.272;2022-12-10T07:06:48;2.40;99.90
21035;DHT22;10676;50.848;3.272;2022-12-10T07:09:14;2.50;99.90
21035;DHT22;10676;50.848;3.272;2022-12-10T07:11:39;2.50;99.90
21035;DHT22;10676;50.848;3.272;2022-12-10T07:14:05;2.50;99.90
21035;DHT22;10676;50.848;3.272;2022-12-10T07:16:32;2.40;99.90
21035;DHT22;10676;50.848;3.272;2022-12-10T07:19:00;2.40;99.90
21035;DHT22;10676;50.848;3.272;2022-12-10T07:23:55;2.40;99.90
21035;DHT22;10676;50.848;3.272;2022-12-10T07:26:30;2.30;99.90
21035;DHT22;10676;50.848;3.272;2022-12-10T07:28:57;2.30;99.90
21035;DHT22;10676;50.848;3.272;2022-12-10T07:31:23;2.30;99.90
21035;DHT22;10676;50.848;3.272;2022-12-10T07:33:50;2.30;99.90
21035;DHT22;10676;50.848;3.272;2022-12-10T07:36:16;2.30;99.90
21035;DHT22;10676;50.848;3.272;2022-12-10T07:38:42;2.30;99.90
21035;DHT22;10676;50.848;3.272;2022-12-10T07:41:10;2.40;99.90
21035;DHT22;10676;50.848;3.272;2022-12-10T07:43:38;2.40;99.90
21035;DHT22;10676;50.848;3.272;2022-12-10T07:46:19;2.50;99.90
21035;DHT22;10676;50.848;3.272;2022-12-10T07:48:46;2.50;99.90
21035;DHT22;10676;50.848;3.272;2022-12-10T07:51:12;2.60;99.90
21035;DHT22;10676;50.848;3.272;2022-12-10T07:53:38;2.50;99.90
21035;DHT22;10676;50.848;3.272;2022-12-10T07:56:05;2.50;99.90
21035;DHT22;10676;50.848;3.272;2022-12-10T07:58:31;2.50;99.90
21035;DHT22;10676;50.848;3.272;2022-12-10T08:00:57;2.60;99.90
21035;DHT22;10676;50.848;3.272;2022-12-10T08:03:23;2.60;99.90
21035;DHT22;10676;50.848;3.272;2022-12-10T08:06:00;2.70;99.90
21035;DHT22;10676;50.848;3.272;2022-12-10T08:08:26;2.70;99.90
21035;DHT22;10676;50.848;3.272;2022-12-10T08:10:51;2.70;99.90
21035;DHT22;10676;50.848;3.272;2022-12-10T08:13:17;2.70;99.90
21035;DHT22;10676;50.848;3.272;2022-12-10T08:15:43;2.70;99.90
21035;DHT22;10676;50.848;3.272;2022-12-10T08:18:09;2.70;99.90
21035;DHT22;10676;50.848;3.272;2022-12-10T08:20:35;2.90;99.90
21035;DHT22;10676;50.848;3.272;2022-12-10T08:23:01;2.90;99.90
21035;DHT22;10676;50.848;3.272;2022-12-10T08:25:27;3.00;99.90
21035;DHT22;10676;50.848;3.272;2022-12-10T08:27:52;3.00;99.90
21035;DHT22;10676;50.848;3.272;2022-12-10T08:30:18;3.00;99.90
21035;DHT22;10676;50.848;3.272;2022-12-10T08:32:43;3.00;99.90
21035;DHT22;10676;50.848;3.272;2022-12-10T08:35:09;3.00;99.90
21035;DHT22;10676;50.848;3.272;2022-12-10T08:37:35;3.00;99.90
21035;DHT22;10676;50.848;3.272;2022-12-10T08:40:00;3.10;99.90
21035;DHT22;10676;50.848;3.272;2022-12-10T08:42:26;3.20;99.90
21035;DHT22;10676;50.848;3.272;2022-12-10T08:44:52;3.20;99.90
21035;DHT22;10676;50.848;3.272;2022-12-10T08:47:17;3.20;99.90
21035;DHT22;10676;50.848;3.272;2022-12-10T08:49:43;3.10;99.90
21035;DHT22;10676;50.848;3.272;2022-12-10T08:52:09;3.20;99.90
21035;DHT22;10676;50.848;3.272;2022-12-10T08:54:35;3.20;99.90
21035;DHT22;10676;50.848;3.272;2022-12-10T08:57:00;3.20;99.90
21035;DHT22;10676;50.848;3.272;2022-12-10T08:59:29;3.20;99.90
21035;DHT22;10676;50.848;3.272;2022-12-10T09:01:55;3.30;99.90
21035;DHT22;10676;50.848;3.272;2022-12-10T09:04:21;3.20;99.90
21035;DHT22;10676;50.848;3.272;2022-12-10T09:06:47;3.50;99.90
21035;DHT22;10676;50.848;3.272;2022-12-10T09:09:15;3.60;99.90
21035;DHT22;10676;50.848;3.272;2022-12-10T09:11:42;3.60;99.90
21035;DHT22;10676;50.848;3.272;2022-12-10T09:14:15;3.60;99.90
21035;DHT22;10676;50.848;3.272;2022-12-10T09:16:46;3.60;99.90
21035;DHT22;10676;50.848;3.272;2022-12-10T09:19:12;3.50;99.90
21035;DHT22;10676;50.848;3.272;2022-12-10T09:21:39;3.50;99.90
21035;DHT22;10676;50.848;3.272;2022-12-10T09:24:05;3.50;99.90
21035;DHT22;10676;50.848;3.272;2022-12-10T09:26:30;3.40;99.90
21035;DHT22;10676;50.848;3.272;2022-12-10T09:28:56;3.50;99.90
21035;DHT22;10676;50.848;3.272;2022-12-10T09:31:23;3.60;99.90
21035;DHT22;10676;50.848;3.272;2022-12-10T09:33:51;3.60;99.90
21035;DHT22;10676;50.848;3.272;2022-12-10T09:36:18;3.60;99.90
21035;DHT22;10676;50.848;3.272;2022-12-10T09:38:45;3.60;99.90
21035;DHT22;10676;50.848;3.272;2022-12-10T09:52:11;3.90;99.90
21035;DHT22;10676;50.848;3.272;2022-12-10T09:55:05;4.10;99.90
21035;DHT22;10676;50.848;3.272;2022-12-10T09:57:48;4.30;99.90
21035;DHT22;10676;50.848;3.272;2022-12-10T10:00:35;4.50;99.90
21035;DHT22;10676;50.848;3.272;2022-12-10T10:03:03;4.80;99.90
21035;DHT22;10676;50.848;3.272;2022-12-10T10:05:37;5.00;99.90
21035;DHT22;10676;50.848;3.272;2022-12-10T10:08:28;5.20;99.90
21035;DHT22;10676;50.848;3.272;2022-12-10T10:10:55;5.40;99.90
21035;DHT22;10676;50.848;3.272;2022-12-10T10:13:47;5.50;99.90
21035;DHT22;10676;50.848;3.272;2022-12-10T10:16:39;5.60;99.90
21035;DHT22;10676;50.848;3.272;2022-12-10T10:19:12;5.80;99.90
21035;DHT22;10676;50.848;3.272;2022-12-10T10:21:46;5.80;99.90
21035;DHT22;10676;50.848;3.272;2022-12-10T10:24:16;5.80;99.90
21035;DHT22;10676;50.848;3.272;2022-12-10T10:26:43;5.80;99.90
21035;DHT22;10676;50.848;3.272;2022-12-10T10:29:11;5.70;99.90
21035;DHT22;10676;50.848;3.272;2022-12-10T10:31:40;5.80;99.90
21035;DHT22;10676;50.848;3.272;2022-12-10T10:34:21;5.70;99.90
21035;DHT22;10676;50.848;3.272;2022-12-10T10:36:55;5.60;99.90
21035;DHT22;10676;50.848;3.272;2022-12-10T10:39:28;5.60;99.90
21035;DHT22;10676;50.848;3.272;2022-12-10T10:41:56;5.60;99.90
21035;DHT22;10676;50.848;3.272;2022-12-10T10:44:24;5.60;99.90
21035;DHT22;10676;50.848;3.272;2022-12-10T10:46:53;5.50;99.90
21035;DHT22;10676;50.848;3.272;2022-12-10T10:51:53;5.60;99.90
21035;DHT22;10676;50.848;3.272;2022-12-10T10:54:43;5.70;99.90
21035;DHT22;10676;50.848;3.272;2022-12-10T10:57:27;5.90;99.90
21035;DHT22;10676;50.848;3.272;2022-12-10T11:02:41;6.50;99.90
21035;DHT22;10676;50.848;3.272;2022-12-10T11:07:44;6.70;99.90
21035;DHT22;10676;50.848;3.272;2022-12-10T11:10:23;6.80;99.90
21035;DHT22;10676;50.848;3.272;2022-12-10T11:12:56;6.60;99.90
21035;DHT22;10676;50.848;3.272;2022-12-10T11:17:51;6.20;99.90
21035;DHT22;10676;50.848;3.272;2022-12-10T11:20:20;6.10;99.90
21035;DHT22;10676;50.848;3.272;2022-12-10T11:22:58;6.10;99.90
21035;DHT22;10676;50.848;3.272;2022-12-10T11:25:51;6.20;99.90
21035;DHT22;10676;50.848;3.272;2022-12-10T11:41:56;7.40;99.90
21035;DHT22;10676;50.848;3.272;2022-12-10T11:49:40;7.30;99.90
21035;DHT22;10676;50.848;3.272;2022-12-10T11:52:24;7.30;99.90
21035;DHT22;10676;50.848;3.272;2022-12-10T12:00:19;7.10;99.90
21035;DHT22;10676;50.848;3.272;2022-12-10T12:03:39;7.10;99.90
21035;DHT22;10676;50.848;3.272;2022-12-10T12:14:38;8.10;99.90
21035;DHT22;10676;50.848;3.272;2022-12-10T12:17:19;8.50;99.90
21035;DHT22;10676;50.848;3.272;2022-12-10T12:19:51;8.70;99.90
21035;DHT22;10676;50.848;3.272;2022-12-10T12:22:39;8.80;99.90
21035;DHT22;10676;50.848;3.272;2022-12-10T12:25:16;9.00;99.90
21035;DHT22;10676;50.848;3.272;2022-12-10T12:27:50;9.10;99.90
21035;DHT22;10676;50.848;3.272;2022-12-10T12:30:20;9.20;99.90
21035;DHT22;10676;50.848;3.272;2022-12-10T12:33:08;9.30;99.90
21035;DHT22;10676;50.848;3.272;2022-12-10T12:35:52;9.40;99.90
21035;DHT22;10676;50.848;3.272;2022-12-10T12:38:30;9.50;99.90
21035;DHT22;10676;50.848;3.272;2022-12-10T12:41:05;9.60;99.90
21035;DHT22;10676;50.848;3.272;2022-12-10T12:43:40;9.60;99.90
21035;DHT22;10676;50.848;3.272;2022-12-10T12:46:16;9.70;99.90
21035;DHT22;10676;50.848;3.272;2022-12-10T12:49:02;9.70;99.90
21035;DHT22;10676;50.848;3.272;2022-12-10T12:51:38;9.80;99.90
21035;DHT22;10676;50.848;3.272;2022-12-10T12:54:07;9.90;99.90
21035;DHT22;10676;50.848;3.272;2022-12-10T13:05:16;9.50;99.90
21035;DHT22;10676;50.848;3.272;2022-12-10T13:07:43;9.50;99.90
21035;DHT22;10676;50.848;3.272;2022-12-10T13:23:33;9.00;99.90
21035;DHT22;10676;50.848;3.272;2022-12-10T13:26:00;8.80;99.90
21035;DHT22;10676;50.848;3.272;2022-12-10T13:28:38;8.80;99.90
21035;DHT22;10676;50.848;3.272;2022-12-10T13:31:13;8.60;99.90
21035;DHT22;10676;50.848;3.272;2022-12-10T13:39:34;8.40;99.90
21035;DHT22;10676;50.848;3.272;2022-12-10T13:47:53;7.90;99.90
21035;DHT22;10676;50.848;3.272;2022-12-10T13:50:42;7.80;99.90
21035;DHT22;10676;50.848;3.272;2022-12-10T13:58:46;7.60;99.90
21035;DHT22;10676;50.848;3.272;2022-12-10T14:04:42;7.40;99.90
21035;DHT22;10676;50.848;3.272;2022-12-10T14:07:11;7.30;99.90
21035;DHT22;10676;50.848;3.272;2022-12-10T14:09:45;7.30;99.90
21035;DHT22;10676;50.848;3.272;2022-12-10T14:12:16;7.10;99.90
21035;DHT22;10676;50.848;3.272;2022-12-10T14:14:46;7.10;99.90
21035;DHT22;10676;50.848;3.272;2022-12-10T14:17:19;7.00;99.90
21035;DHT22;10676;50.848;3.272;2022-12-10T14:19:48;6.90;99.90
21035;DHT22;10676;50.848;3.272;2022-12-10T14:22:34;6.80;99.90
21035;DHT22;10676;50.848;3.272;2022-12-10T14:25:03;6.70;99.90
21035;DHT22;10676;50.848;3.272;2022-12-10T14:27:30;6.70;99.90
21035;DHT22;10676;50.848;3.272;2022-12-10T14:30:14;6.60;99.90
21035;DHT22;10676;50.848;3.272;2022-12-10T14:32:40;6.50;99.90
21035;DHT22;10676;50.848;3.272;2022-12-10T14:35:18;6.40;99.90
21035;DHT22;10676;50.848;3.272;2022-12-10T14:37:46;6.20;99.90
21035;DHT22;10676;50.848;3.272;2022-12-10T14:40:24;6.10;99.90
21035;DHT22;10676;50.848;3.272;2022-12-10T14:42:55;6.00;99.90
21035;DHT22;10676;50.848;3.272;2022-12-10T14:45:23;5.90;99.90
21035;DHT22;10676;50.848;3.272;2022-12-10T14:47:49;5.80;99.90
21035;DHT22;10676;50.848;3.272;2022-12-10T14:50:16;5.70;99.90
21035;DHT22;10676;50.848;3.272;2022-12-10T14:52:45;5.50;99.90
21035;DHT22;10676;50.848;3.272;2022-12-10T14:55:16;5.30;99.90
21035;DHT22;10676;50.848;3.272;2022-12-10T14:57:47;5.10;99.90
21035;DHT22;10676;50.848;3.272;2022-12-10T15:00:17;4.90;99.90
21035;DHT22;10676;50.848;3.272;2022-12-10T15:02:59;4.70;99.90
21035;DHT22;10676;50.848;3.272;2022-12-10T15:05:30;4.40;99.90
21035;DHT22;10676;50.848;3.272;2022-12-10T15:08:13;4.30;99.90
21035;DHT22;10676;50.848;3.272;2022-12-10T15:10:42;4.10;99.90
21035;DHT22;10676;50.848;3.272;2022-12-10T15:13:39;3.80;99.90
21035;DHT22;10676;50.848;3.272;2022-12-10T15:16:06;3.60;99.90
21035;DHT22;10676;50.848;3.272;2022-12-10T15:18:40;3.40;99.90
21035;DHT22;10676;50.848;3.272;2022-12-10T15:21:22;3.20;99.90
21035;DHT22;10676;50.848;3.272;2022-12-10T15:23:49;3.00;99.90
21035;DHT22;10676;50.848;3.272;2022-12-10T15:26:24;2.80;99.90
21035;DHT22;10676;50.848;3.272;2022-12-10T15:31:49;2.40;99.90
21035;DHT22;10676;50.848;3.272;2022-12-10T15:34:16;2.20;99.90
21035;DHT22;10676;50.848;3.272;2022-12-10T15:37:03;2.00;99.90
21035;DHT22;10676;50.848;3.272;2022-12-10T15:39:37;1.80;99.90
21035;DHT22;10676;50.848;3.272;2022-12-10T15:42:08;1.70;99.90
21035;DHT22;10676;50.848;3.272;2022-12-10T15:44:58;1.60;99.90
21035;DHT22;10676;50.848;3.272;2022-12-10T15:47:26;1.40;99.90
21035;DHT22;10676;50.848;3.272;2022-12-10T15:49:54;1.30;99.90
21035;DHT22;10676;50.848;3.272;2022-12-10T15:52:31;1.20;99.90
21035;DHT22;10676;50.848;3.272;2022-12-10T15:55:00;1.10;99.90
21035;DHT22;10676;50.848;3.272;2022-12-10T15:57:31;1.10;99.90
21035;DHT22;10676;50.848;3.272;2022-12-10T16:00:20;1.20;99.90
21035;DHT22;10676;50.848;3.272;2022-12-10T16:02:46;1.20;99.90
21035;DHT22;10676;50.848;3.272;2022-12-10T16:05:15;1.20;99.90
21035;DHT22;10676;50.848;3.272;2022-12-10T16:07:42;1.30;99.90
21035;DHT22;10676;50.848;3.272;2022-12-10T16:10:10;1.40;99.90
21035;DHT22;10676;50.848;3.272;2022-12-10T16:12:37;1.50;99.90
21035;DHT22;10676;50.848;3.272;2022-12-10T16:15:04;1.70;99.90
21035;DHT22;10676;50.848;3.272;2022-12-10T16:17:30;1.70;99.90
21035;DHT22;10676;50.848;3.272;2022-12-10T16:22:42;1.70;99.90
21035;DHT22;10676;50.848;3.272;2022-12-10T16:25:08;1.70;99.90
21035;DHT22;10676;50.848;3.272;2022-12-10T16:27:33;1.80;99.90
21035;DHT22;10676;50.848;3.272;2022-12-10T16:30:11;1.70;99.90
21035;DHT22;10676;50.848;3.272;2022-12-10T16:32:37;1.70;99.90
21035;DHT22;10676;50.848;3.272;2022-12-10T16:35:03;1.60;99.90
21035;DHT22;10676;50.848;3.272;2022-12-10T16:37:28;1.50;99.90
21035;DHT22;10676;50.848;3.272;2022-12-10T16:39:54;1.40;99.90
21035;DHT22;10676;50.848;3.272;2022-12-10T16:42:19;1.30;99.90
21035;DHT22;10676;50.848;3.272;2022-12-10T16:44:45;1.20;99.90
21035;DHT22;10676;50.848;3.272;2022-12-10T16:47:11;1.20;99.90
21035;DHT22;10676;50.848;3.272;2022-12-10T16:49:37;1.10;99.90
21035;DHT22;10676;50.848;3.272;2022-12-10T16:52:03;1.00;99.90
21035;DHT22;10676;50.848;3.272;2022-12-10T16:54:30;0.90;99.90
21035;DHT22;10676;50.848;3.272;2022-12-10T16:56:55;0.90;99.90
21035;DHT22;10676;50.848;3.272;2022-12-10T16:59:21;0.80;99.90
21035;DHT22;10676;50.848;3.272;2022-12-10T17:01:47;0.70;99.90
21035;DHT22;10676;50.848;3.272;2022-12-10T17:04:12;0.60;99.90
21035;DHT22;10676;50.848;3.272;2022-12-10T17:06:38;0.50;99.90
21035;DHT22;10676;50.848;3.272;2022-12-10T17:09:04;0.40;99.90
21035;DHT22;10676;50.848;3.272;2022-12-10T17:11:40;0.30;99.90
21035;DHT22;10676;50.848;3.272;2022-12-10T17:16:41;0.20;99.90
21035;DHT22;10676;50.848;3.272;2022-12-10T17:19:11;0.10;99.90
21035;DHT22;10676;50.848;3.272;2022-12-10T17:21:37;0.10;99.90
21035;DHT22;10676;50.848;3.272;2022-12-10T17:24:05;0.00;99.90
21035;DHT22;10676;50.848;3.272;2022-12-10T17:26:35;0.00;99.90
21035;DHT22;10676;50.848;3.272;2022-12-10T17:29:08;0.00;99.90
21035;DHT22;10676;50.848;3.272;2022-12-10T17:31:36;0.00;99.90
21035;DHT22;10676;50.848;3.272;2022-12-10T17:34:03;0.00;99.90
21035;DHT22;10676;50.848;3.272;2022-12-10T17:36:29;-0.10;99.90
21035;DHT22;10676;50.848;3.272;2022-12-10T17:38:55;-0.10;99.90
21035;DHT22;10676;50.848;3.272;2022-12-10T17:41:21;-0.20;99.90
21035;DHT22;10676;50.848;3.272;2022-12-10T17:43:46;-0.10;99.90
21035;DHT22;10676;50.848;3.272;2022-12-10T17:46:23;0.00;99.90
21035;DHT22;10676;50.848;3.272;2022-12-10T17:48:49;0.10;99.90
21035;DHT22;10676;50.848;3.272;2022-12-10T17:51:14;0.10;99.90
21035;DHT22;10676;50.848;3.272;2022-12-10T17:53:41;0.10;99.90
21035;DHT22;10676;50.848;3.272;2022-12-10T17:56:19;0.10;99.90
21035;DHT22;10676;50.848;3.272;2022-12-10T17:58:46;0.10;99.90
21035;DHT22;10676;50.848;3.272;2022-12-10T18:01:12;0.10;99.90
21035;DHT22;10676;50.848;3.272;2022-12-10T18:03:39;0.10;99.90
21035;DHT22;10676;50.848;3.272;2022-12-10T18:08:46;0.00;99.90
21035;DHT22;10676;50.848;3.272;2022-12-10T18:11:18;0.00;99.90
21035;DHT22;10676;50.848;3.272;2022-12-10T18:13:44;-0.10;99.90